Carpentersville, Illinois
Current Conditions -  °F | °C
As of 7:04 PM on Saturday 22 Nov 2014 (Local Time) from KDPA Reporting Station
Overcast Overcast  
Wind Chill: 50°   Ceiling: 5000
Heat Index: 50°   Visibility: 9mi
Dew Point: 45°   Wind: 12mph
Humidity: 83%   Direction: 190°S
Pressure: 29.85"   Gusts: NA
Location:  42.12°N, 88.26°W
Report Text: KDPA 230104Z 19010KT 9SM SCT023 OVC050 10/07 A2985 RMK AO2 T01000072
Loading
Personal Weather Stations






























Interactive Weather Map New forecast layout! Learn more

10-Day Weather Forecast

Advertisements
Track Severe Weather on mobile